createdAt,value
2022-11-21T00:01:12.104Z,0.09
2022-11-21T00:03:09.316Z,0.09
2022-11-21T00:05:10.230Z,0.09
2022-11-21T00:07:10.095Z,0.09
2022-11-21T00:09:09.346Z,0.09
2022-11-21T00:11:09.992Z,0.09
2022-11-21T00:13:09.302Z,0.09
2022-11-21T00:15:10.292Z,0.09
2022-11-21T00:17:10.276Z,0.09
2022-11-21T00:19:09.545Z,0.09
2022-11-21T00:21:09.174Z,0.09
2022-11-21T00:23:09.357Z,0.09
2022-11-21T00:25:14.183Z,0.09
2022-11-21T00:27:09.337Z,0.09
2022-11-21T00:29:09.842Z,0.09
2022-11-21T00:31:09.271Z,0.09
2022-11-21T00:33:09.647Z,0.09
2022-11-21T00:35:09.363Z,0.09
2022-11-21T00:37:09.665Z,0.09
2022-11-21T00:39:09.096Z,0.09
2022-11-21T00:41:09.598Z,0.09
2022-11-21T00:43:08.907Z,0.09
2022-11-21T00:45:09.797Z,0.09
2022-11-21T00:47:09.151Z,0.09
2022-11-21T00:49:09.672Z,0.09
2022-11-21T00:51:08.966Z,0.09
2022-11-21T00:53:09.352Z,0.09
2022-11-21T00:55:09.151Z,0.09
2022-11-21T00:57:09.301Z,0.09
2022-11-21T00:59:09.758Z,0.09
2022-11-21T01:01:12.760Z,0.09
2022-11-21T01:03:09.179Z,0.09
2022-11-21T01:05:10.134Z,0.09
2022-11-21T01:07:09.306Z,0.09
2022-11-21T01:09:09.588Z,0.09
2022-11-21T01:11:08.972Z,0.09
2022-11-21T01:13:11.141Z,0.09
2022-11-21T01:15:09.223Z,0.09
2022-11-21T01:17:09.443Z,0.09
2022-11-21T01:19:08.880Z,0.09
2022-11-21T01:21:09.398Z,0.09
2022-11-21T01:23:09.007Z,0.09
2022-11-21T01:25:09.812Z,0.09
2022-11-21T01:27:08.753Z,0.09
2022-11-21T01:29:09.149Z,0.09
2022-11-21T01:31:09.703Z,0.09
2022-11-21T01:33:09.188Z,0.09
2022-11-21T01:35:10.186Z,0.09
2022-11-21T01:37:09.007Z,0.09
2022-11-21T01:39:09.538Z,0.09
2022-11-21T01:41:09.180Z,0.09
2022-11-21T01:43:09.776Z,0.09
2022-11-21T01:45:09.200Z,0.09
2022-11-21T01:47:09.534Z,0.09
2022-11-21T01:49:09.026Z,0.09
2022-11-21T01:51:09.792Z,0.09
2022-11-21T01:53:09.241Z,0.09
2022-11-21T01:55:09.722Z,0.09
2022-11-21T01:57:08.940Z,0.09
2022-11-21T01:59:09.581Z,0.09
2022-11-21T02:01:14.958Z,0.09
2022-11-21T02:03:09.313Z,0.09
2022-11-21T02:05:10.225Z,0.09
2022-11-21T02:07:09.181Z,0.09
2022-11-21T02:09:08.848Z,0.09
2022-11-21T02:11:09.326Z,0.09
2022-11-21T02:13:09.686Z,0.09
2022-11-21T02:15:09.187Z,0.09
2022-11-21T02:17:09.567Z,0.09
2022-11-21T02:19:09.017Z,0.09
2022-11-21T02:21:09.402Z,0.09
2022-11-21T02:23:09.715Z,0.09
2022-11-21T02:25:09.084Z,0.09
2022-11-21T02:27:09.524Z,0.09
2022-11-21T02:29:09.055Z,0.09
2022-11-21T02:31:09.278Z,0.09
2022-11-21T02:33:08.669Z,0.09
2022-11-21T02:35:09.225Z,0.09
2022-11-21T02:37:09.777Z,0.09
2022-11-21T02:39:09.289Z,0.09
2022-11-21T02:41:09.555Z,0.09
2022-11-21T02:43:15.079Z,0.09
2022-11-21T02:45:09.597Z,0.09
2022-11-21T02:47:08.831Z,0.09
2022-11-21T02:49:12.048Z,0.09
2022-11-21T02:51:09.559Z,0.09
2022-11-21T02:53:09.042Z,0.09
2022-11-21T02:55:10.078Z,0.09
2022-11-21T02:57:10.404Z,0.09
2022-11-21T02:59:13.164Z,0.09
2022-11-21T03:01:12.065Z,0.09
2022-11-21T03:03:09.753Z,0.09
2022-11-21T03:05:09.448Z,0.09
2022-11-21T03:07:09.669Z,0.09
2022-11-21T03:09:08.954Z,0.09
2022-11-21T03:11:09.505Z,0.09
2022-11-21T03:13:08.940Z,0.09
2022-11-21T03:15:09.535Z,0.09
2022-11-21T03:17:09.727Z,0.09
2022-11-21T03:19:09.047Z,0.09
2022-11-21T03:21:09.665Z,0.09
2022-11-21T03:23:09.160Z,0.09
2022-11-21T03:25:10.183Z,0.09
2022-11-21T03:27:08.939Z,0.09
2022-11-21T03:29:09.500Z,0.09
2022-11-21T03:31:09.083Z,0.09
2022-11-21T03:33:09.454Z,0.09
2022-11-21T03:35:08.891Z,0.09
2022-11-21T03:37:09.185Z,0.09
2022-11-21T03:39:09.799Z,0.09
2022-11-21T03:41:09.428Z,0.09
2022-11-21T03:43:09.816Z,0.09
2022-11-21T03:45:09.202Z,0.09
2022-11-21T03:47:09.640Z,0.09
2022-11-21T03:49:09.245Z,0.09
2022-11-21T03:51:09.713Z,0.09
2022-11-21T03:53:09.135Z,0.09
2022-11-21T03:55:09.537Z,0.09
2022-11-21T03:57:09.099Z,0.09
2022-11-21T03:59:09.559Z,0.09
2022-11-21T04:01:09.154Z,0.09
2022-11-21T04:03:08.961Z,0.09
2022-11-21T04:05:09.356Z,0.09
2022-11-21T04:07:08.818Z,0.09
2022-11-21T04:09:09.424Z,0.09
2022-11-21T04:11:09.104Z,0.09
2022-11-21T04:13:15.279Z,0.09
2022-11-21T04:15:13.684Z,0.09
2022-11-21T04:17:09.300Z,0.09
2022-11-21T04:19:08.856Z,0.09
2022-11-21T04:21:09.322Z,0.09
2022-11-21T04:23:08.712Z,0.09
2022-11-21T04:25:09.145Z,0.09
2022-11-21T04:27:09.722Z,0.09
2022-11-21T04:29:09.160Z,0.09
2022-11-21T04:31:12.121Z,0.09
2022-11-21T04:33:09.100Z,0.09
2022-11-21T04:35:09.668Z,0.09
2022-11-21T04:37:11.756Z,0.09
2022-11-21T04:39:09.813Z,0.09
2022-11-21T04:41:09.093Z,0.09
2022-11-21T04:43:09.731Z,0.09
2022-11-21T04:45:09.231Z,0.09
2022-11-21T04:47:16.511Z,0.09
2022-11-21T04:49:09.174Z,0.09
2022-11-21T04:51:09.614Z,0.09
2022-11-21T04:53:09.077Z,0.09
2022-11-21T04:55:09.714Z,0.09
2022-11-21T04:57:09.074Z,0.09
2022-11-21T04:59:09.455Z,0.09
2022-11-21T05:01:20.807Z,0.09
2022-11-21T05:03:09.403Z,0.09
2022-11-21T05:05:09.909Z,0.09
2022-11-21T05:07:09.202Z,0.09
2022-11-21T05:09:15.367Z,0.09
2022-11-21T05:11:09.031Z,0.09
2022-11-21T05:13:09.684Z,0.09
2022-11-21T05:15:09.159Z,0.09
2022-11-21T05:17:09.540Z,0.09
2022-11-21T05:19:08.849Z,0.09
2022-11-21T05:21:10.882Z,0.09
2022-11-21T05:23:09.250Z,0.09
2022-11-21T05:25:09.564Z,0.09
2022-11-21T05:27:09.006Z,0.09
2022-11-21T05:29:09.430Z,0.09
2022-11-21T05:31:09.034Z,0.09
2022-11-21T05:33:09.525Z,0.09
2022-11-21T05:35:08.885Z,0.09
2022-11-21T05:37:09.103Z,0.09
2022-11-21T05:39:09.626Z,0.09
2022-11-21T05:41:09.250Z,0.09
2022-11-21T05:43:11.105Z,0.09
2022-11-21T05:45:08.919Z,0.09
2022-11-21T05:47:09.338Z,0.09
2022-11-21T05:49:08.988Z,0.09
2022-11-21T05:51:09.404Z,0.09
2022-11-21T05:53:09.711Z,0.09
2022-11-21T05:55:09.124Z,0.09
2022-11-21T05:57:09.487Z,0.09
2022-11-21T05:59:10.033Z,0.09
2022-11-21T06:01:12.151Z,0.09
2022-11-21T06:03:10.347Z,0.09
2022-11-21T06:05:09.448Z,0.09
2022-11-21T06:07:10.594Z,0.09
2022-11-21T06:09:09.552Z,0.09
2022-11-21T06:11:09.035Z,0.09
2022-11-21T06:13:11.182Z,0.09
2022-11-21T06:15:10.019Z,0.09
2022-11-21T06:17:09.364Z,0.09
2022-11-21T06:19:10.437Z,0.09
2022-11-21T06:21:08.953Z,0.09
2022-11-21T06:23:09.227Z,0.09
2022-11-21T06:25:08.799Z,0.09
2022-11-21T06:27:09.368Z,0.09
2022-11-21T06:29:09.748Z,0.09
2022-11-21T06:31:15.352Z,0.09
2022-11-21T06:33:10.009Z,0.09
2022-11-21T06:35:09.222Z,0.09
2022-11-21T06:37:09.706Z,0.09
2022-11-21T06:39:08.877Z,0.09
2022-11-21T06:41:09.444Z,0.09
2022-11-21T06:43:09.061Z,0.09
2022-11-21T06:45:09.575Z,0.09
2022-11-21T06:47:13.999Z,0.09
2022-11-21T06:49:09.328Z,0.09
2022-11-21T06:51:09.080Z,0.09
2022-11-21T06:53:09.713Z,0.09
2022-11-21T06:55:13.272Z,0.09
2022-11-21T06:57:09.406Z,0.09
2022-11-21T06:59:08.907Z,0.09
2022-11-21T07:01:12.514Z,0.09
2022-11-21T07:03:14.567Z,0.09
2022-11-21T07:05:10.108Z,0.09
2022-11-21T07:07:09.179Z,0.09
2022-11-21T07:09:44.770Z,0.09
2022-11-21T07:11:45.364Z,0.09
2022-11-21T07:13:09.431Z,0.09
2022-11-21T07:15:16.549Z,0.09
2022-11-21T07:17:09.049Z,0.09
2022-11-21T07:19:09.650Z,0.09
2022-11-21T07:21:09.044Z,0.09
2022-11-21T07:23:09.531Z,0.09
2022-11-21T07:25:08.878Z,0.09
2022-11-21T07:27:09.265Z,0.09
2022-11-21T07:29:09.674Z,0.09
2022-11-21T07:31:13.445Z,0.09
2022-11-21T07:33:09.433Z,0.09
2022-11-21T07:35:08.839Z,0.09
2022-11-21T07:37:09.513Z,0.09
2022-11-21T07:39:08.937Z,0.09
2022-11-21T07:41:09.313Z,0.09
2022-11-21T07:43:10.812Z,0.09
2022-11-21T07:45:08.935Z,0.09
2022-11-21T07:47:09.676Z,0.09
2022-11-21T07:49:14.691Z,0.09
2022-11-21T07:51:09.392Z,0.09
2022-11-21T07:53:08.846Z,0.09
2022-11-21T07:55:09.389Z,0.09
2022-11-21T07:57:09.713Z,0.09
2022-11-21T07:59:09.206Z,0.09
2022-11-21T08:01:12.389Z,0.09
2022-11-21T08:03:09.604Z,0.09
2022-11-21T08:05:09.687Z,0.09
2022-11-21T08:07:09.459Z,0.09
2022-11-21T08:09:08.728Z,0.09
2022-11-21T08:11:09.105Z,0.09
2022-11-21T08:13:09.565Z,0.09
2022-11-21T08:15:09.206Z,0.09
2022-11-21T08:17:09.591Z,0.09
2022-11-21T08:19:09.154Z,0.09
2022-11-21T08:21:09.541Z,0.09
2022-11-21T08:23:09.194Z,0.09
2022-11-21T08:25:09.419Z,0.09
2022-11-21T08:27:08.915Z,0.09
2022-11-21T08:29:11.541Z,0.09
2022-11-21T08:31:09.857Z,0.09
2022-11-21T08:33:09.277Z,0.09
2022-11-21T08:35:11.113Z,0.09
2022-11-21T08:37:08.858Z,0.09
2022-11-21T08:39:09.385Z,0.09
2022-11-21T08:41:13.367Z,0.09
2022-11-21T08:43:09.494Z,0.09
2022-11-21T08:45:10.496Z,0.09
2022-11-21T08:47:09.334Z,0.09
2022-11-21T08:49:09.801Z,0.09
2022-11-21T08:51:16.577Z,0.09
2022-11-21T08:53:09.458Z,0.09
2022-11-21T08:55:08.900Z,0.09
2022-11-21T08:57:12.299Z,0.09
2022-11-21T08:59:09.810Z,0.09
2022-11-21T09:01:11.629Z,0.09
2022-11-21T09:03:09.525Z,0.09
2022-11-21T09:05:09.731Z,0.09
2022-11-21T09:07:10.952Z,0.09
2022-11-21T09:09:09.734Z,0.09
2022-11-21T09:11:10.479Z,0.09
2022-11-21T09:13:09.548Z,0.09
2022-11-21T09:15:08.842Z,0.09
2022-11-21T09:17:23.272Z,0.09
2022-11-21T09:19:09.672Z,0.09
2022-11-21T09:21:10.409Z,0.09
2022-11-21T09:23:09.707Z,0.09
2022-11-21T09:25:09.618Z,0.09
2022-11-21T09:27:09.531Z,0.09
2022-11-21T09:29:09.664Z,0.09
2022-11-21T09:31:10.563Z,0.09
2022-11-21T09:33:09.089Z,0.09
2022-11-21T09:35:09.538Z,0.09
2022-11-21T09:37:09.588Z,0.09
2022-11-21T09:39:09.675Z,0.09
2022-11-21T09:41:09.184Z,0.09
2022-11-21T09:43:09.543Z,0.09
2022-11-21T09:45:09.987Z,0.09
2022-11-21T09:47:09.624Z,0.09
2022-11-21T09:49:08.991Z,0.09
2022-11-21T09:51:16.600Z,0.09
2022-11-21T09:53:09.765Z,0.09
2022-11-21T09:55:10.728Z,0.09
2022-11-21T09:57:09.722Z,0.09
2022-11-21T09:59:09.662Z,0.09
2022-11-21T10:01:13.435Z,0.09
2022-11-21T10:03:09.640Z,0.09
2022-11-21T10:05:09.813Z,0.09
2022-11-21T10:07:09.834Z,0.09
2022-11-21T10:09:10.719Z,0.09
2022-11-21T10:11:17.796Z,0.09
2022-11-21T10:13:09.518Z,0.09
2022-11-21T10:15:10.689Z,0.09
2022-11-21T10:17:15.523Z,0.09
2022-11-21T10:19:09.698Z,0.09
2022-11-21T10:21:10.292Z,0.09
2022-11-21T10:23:09.744Z,0.09
2022-11-21T10:25:08.991Z,0.09
2022-11-21T10:27:09.742Z,0.09
2022-11-21T10:29:09.114Z,0.37
2022-11-21T10:31:09.429Z,0.37
2022-11-21T10:33:08.737Z,0.37
2022-11-21T10:35:09.129Z,0.07
2022-11-21T10:37:11.920Z,0.07
2022-11-21T10:39:09.059Z,0.07
2022-11-21T10:41:09.562Z,0.03
2022-11-21T10:43:11.198Z,0.03
2022-11-21T10:45:09.504Z,0.03
2022-11-21T10:47:08.910Z,2.27
2022-11-21T10:49:15.821Z,2.27
2022-11-21T10:51:09.540Z,2.27
2022-11-21T10:53:09.001Z,0.02
2022-11-21T10:55:15.876Z,0.02
2022-11-21T10:57:09.023Z,0.02
2022-11-21T10:59:11.066Z,1.56
2022-11-21T11:01:12.133Z,1.56
2022-11-21T11:03:09.617Z,1.56
2022-11-21T11:05:48.314Z,0.01
2022-11-21T11:07:08.785Z,0.01
2022-11-21T11:09:09.267Z,0.01
2022-11-21T11:11:13.364Z,0.01
2022-11-21T11:13:38.624Z,0.01
2022-11-21T11:15:09.495Z,0.01
2022-11-21T11:17:15.215Z,0.01
2022-11-21T11:19:16.952Z,0.01
2022-11-21T11:21:09.669Z,0.01
2022-11-21T11:23:10.725Z,0.01
2022-11-21T11:25:12.514Z,0.01
2022-11-21T11:27:08.911Z,0.01
2022-11-21T11:29:10.503Z,1.05
2022-11-21T11:31:10.578Z,1.05
2022-11-21T11:33:17.136Z,1.05
2022-11-21T11:35:09.693Z,0.01
2022-11-21T11:37:09.765Z,0.01
2022-11-21T11:39:10.561Z,0.01
2022-11-21T11:41:09.232Z,0.01
2022-11-21T11:43:13.314Z,0.01
2022-11-21T11:45:09.617Z,0.01
2022-11-21T11:47:09.643Z,0.01
2022-11-21T11:49:44.306Z,0.01
2022-11-21T11:51:09.640Z,0.01
2022-11-21T11:53:09.665Z,0.96
2022-11-21T11:55:09.624Z,0.96
2022-11-21T11:57:09.896Z,0.96
2022-11-21T11:59:09.091Z,0.93
2022-11-21T12:01:12.453Z,0.93
2022-11-21T12:03:09.843Z,0.93
2022-11-21T12:05:09.761Z,0.91
2022-11-21T12:09:14.134Z,0.91
2022-11-21T12:09:40.749Z,0.01
2022-11-21T12:13:09.329Z,0.01
2022-11-21T12:17:20.914Z,0.86
2022-11-21T12:21:10.695Z,0.86
2022-11-21T12:25:16.426Z,0.01
2022-11-21T12:29:09.677Z,0.01
2022-11-21T12:33:16.366Z,0.01
2022-11-21T12:37:25.123Z,0.01
2022-11-21T12:41:10.486Z,0.84
2022-11-21T12:45:09.735Z,0.84
2022-11-21T12:49:09.793Z,0.01
2022-11-21T12:53:09.579Z,0.01
2022-11-21T12:57:09.113Z,0.01
2022-11-21T13:01:15.414Z,0.81
2022-11-21T13:05:09.634Z,0.01
2022-11-21T13:09:10.344Z,0.01
2022-11-21T13:13:08.835Z,0.01
2022-11-21T13:17:11.057Z,0.01
2022-11-21T13:21:10.500Z,0.01
2022-11-21T13:25:09.925Z,0.01
2022-11-21T13:29:09.380Z,0.01
2022-11-21T13:33:09.312Z,0.01
2022-11-21T13:37:09.070Z,0.01
2022-11-21T13:41:10.326Z,0.01
2022-11-21T13:45:09.561Z,0.01
2022-11-21T13:49:09.789Z,0.01
2022-11-21T13:53:09.806Z,0.01
2022-11-21T13:57:09.742Z,0.01
2022-11-21T14:01:16.984Z,0.01
2022-11-21T14:05:09.633Z,0.01
2022-11-21T14:09:10.622Z,0.01
2022-11-21T14:13:18.857Z,0.01
2022-11-21T14:17:09.787Z,0.01
2022-11-21T14:21:09.689Z,0.01
2022-11-21T14:25:09.747Z,0.01
2022-11-21T14:29:09.457Z,0.01
2022-11-21T14:33:16.709Z,0.01
2022-11-21T14:37:09.503Z,0.01
2022-11-21T14:41:09.588Z,0.01
2022-11-21T14:45:09.381Z,0.01
2022-11-21T14:49:09.778Z,0.01
2022-11-21T14:53:09.603Z,0.01
2022-11-21T14:57:09.694Z,0.01
2022-11-21T15:01:58.904Z,0.01
2022-11-21T15:05:10.592Z,0.01
2022-11-21T15:11:23.823Z,0.01
2022-11-21T15:13:10.691Z,0.01
2022-11-21T15:15:24.880Z,0.01
2022-11-21T15:19:35.811Z,0.01
2022-11-21T15:23:10.730Z,0.01
2022-11-21T15:27:10.025Z,0.01
2022-11-21T15:31:11.074Z,0.01
2022-11-21T15:35:43.683Z,0.01
2022-11-21T15:39:09.554Z,0.01
2022-11-21T15:43:09.527Z,0.01
2022-11-21T15:47:09.922Z,0.01
2022-11-21T15:51:10.451Z,0.01
2022-11-21T15:55:09.971Z,0.01
2022-11-21T15:59:13.880Z,0.01
2022-11-21T16:03:10.197Z,0.01
2022-11-21T16:07:09.506Z,0.01
2022-11-21T16:11:20.499Z,0.01
2022-11-21T16:15:09.563Z,0.01
2022-11-21T16:19:09.668Z,0.01
2022-11-21T16:23:10.706Z,0.01
2022-11-21T16:27:09.738Z,0.01
2022-11-21T16:31:09.303Z,0.01
2022-11-21T16:35:09.702Z,0.01
2022-11-21T16:39:18.769Z,0.01
2022-11-21T16:43:09.669Z,0.01
2022-11-21T16:47:16.372Z,0.01
2022-11-21T16:51:10.250Z,0.01
2022-11-21T16:55:16.564Z,0.01
2022-11-21T16:59:09.796Z,0.01
2022-11-21T17:03:09.758Z,0.01
2022-11-21T17:07:09.815Z,0.01
2022-11-21T17:11:09.416Z,0.01
2022-11-21T17:15:09.268Z,0.01
2022-11-21T17:19:09.173Z,0.01
2022-11-21T17:23:09.968Z,0.01
2022-11-21T17:27:09.628Z,0.01
2022-11-21T17:31:09.641Z,0.01
2022-11-21T17:35:17.635Z,0.01
2022-11-21T17:39:09.694Z,0.01
2022-11-21T17:43:09.713Z,0.01
2022-11-21T17:47:16.825Z,0.01
2022-11-21T17:51:14.176Z,0.01
2022-11-21T17:55:09.809Z,0.01
2022-11-21T17:59:09.867Z,0.01
2022-11-21T18:03:10.870Z,0.01
2022-11-21T18:07:09.778Z,0.01
2022-11-21T18:11:51.061Z,0.01
2022-11-21T18:15:09.121Z,0.01
2022-11-21T18:19:08.882Z,0.01
2022-11-21T18:23:14.676Z,0.01
2022-11-21T18:27:09.793Z,0.01
2022-11-21T18:31:09.358Z,0.01
2022-11-21T18:35:09.536Z,0.01
2022-11-21T18:39:53.324Z,0.01
2022-11-21T18:43:09.689Z,0.01
2022-11-21T18:47:20.001Z,0.01
2022-11-21T18:51:08.877Z,0.01
2022-11-21T18:55:09.572Z,0.01
2022-11-21T18:59:10.577Z,0.01
2022-11-21T19:03:10.648Z,0.01
2022-11-21T19:07:09.003Z,0.01
2022-11-21T19:11:49.317Z,0.01
2022-11-21T19:15:10.562Z,0.01
2022-11-21T19:19:48.919Z,0.01
2022-11-21T19:23:09.501Z,0.01
2022-11-21T19:27:09.509Z,0.01
2022-11-21T19:31:09.241Z,0.01
2022-11-21T19:35:09.080Z,0.01
2022-11-21T19:39:13.883Z,0.01
2022-11-21T19:43:09.715Z,0.01
2022-11-21T19:47:09.598Z,0.01
2022-11-21T19:51:16.528Z,0.01
2022-11-21T19:55:09.317Z,0.01
2022-11-21T19:59:09.310Z,0.01
2022-11-21T20:03:09.387Z,0.01
2022-11-21T20:07:08.905Z,0.01
2022-11-21T20:11:15.669Z,0.01
2022-11-21T20:15:16.226Z,0.01
2022-11-21T20:19:08.902Z,0.01
2022-11-21T20:23:08.849Z,0.01
2022-11-21T20:27:08.986Z,0.01
2022-11-21T20:31:08.774Z,0.01
2022-11-21T20:35:09.823Z,0.01
2022-11-21T20:39:09.751Z,0.01
2022-11-21T20:43:09.461Z,0.01
2022-11-21T20:47:18.677Z,0.01
2022-11-21T20:49:17.449Z,0.01
2022-11-21T20:54:04.901Z,0.01
2022-11-21T20:54:39.358Z,0.01
2022-11-21T20:57:14.873Z,0.01
